sensor_id;sensor_type;location;lat;lon;timestamp;P1;durP1;ratioP1;P2;durP2;ratioP2
43626;SDS011;29217;52.586;13.442;2022-08-03T00:02:12;5.10;;;2.95;;
43626;SDS011;29217;52.586;13.442;2022-08-03T00:04:37;5.70;;;3.03;;
43626;SDS011;29217;52.586;13.442;2022-08-03T00:07:03;7.32;;;3.22;;
43626;SDS011;29217;52.586;13.442;2022-08-03T00:09:28;8.73;;;3.55;;
43626;SDS011;29217;52.586;13.442;2022-08-03T00:11:55;7.72;;;3.55;;
43626;SDS011;29217;52.586;13.442;2022-08-03T00:14:20;10.90;;;3.33;;
43626;SDS011;29217;52.586;13.442;2022-08-03T00:16:46;4.50;;;3.58;;
43626;SDS011;29217;52.586;13.442;2022-08-03T00:19:11;10.77;;;3.08;;
43626;SDS011;29217;52.586;13.442;2022-08-03T00:21:37;6.88;;;3.35;;
43626;SDS011;29217;52.586;13.442;2022-08-03T00:24:02;5.63;;;3.15;;
43626;SDS011;29217;52.586;13.442;2022-08-03T00:26:28;6.35;;;3.17;;
43626;SDS011;29217;52.586;13.442;2022-08-03T00:28:55;14.65;;;3.28;;
43626;SDS011;29217;52.586;13.442;2022-08-03T00:31:21;7.10;;;2.95;;
43626;SDS011;29217;52.586;13.442;2022-08-03T00:33:46;5.22;;;3.50;;
43626;SDS011;29217;52.586;13.442;2022-08-03T00:36:12;11.02;;;3.05;;
43626;SDS011;29217;52.586;13.442;2022-08-03T00:38:37;8.18;;;2.97;;
43626;SDS011;29217;52.586;13.442;2022-08-03T00:41:03;7.10;;;2.88;;
43626;SDS011;29217;52.586;13.442;2022-08-03T00:43:28;11.57;;;3.55;;
43626;SDS011;29217;52.586;13.442;2022-08-03T00:45:54;5.05;;;2.97;;
43626;SDS011;29217;52.586;13.442;2022-08-03T00:48:19;9.07;;;3.60;;
43626;SDS011;29217;52.586;13.442;2022-08-03T00:50:45;8.98;;;3.53;;
43626;SDS011;29217;52.586;13.442;2022-08-03T00:53:12;7.50;;;3.00;;
43626;SDS011;29217;52.586;13.442;2022-08-03T00:55:38;7.63;;;3.00;;
43626;SDS011;29217;52.586;13.442;2022-08-03T00:58:07;8.15;;;3.03;;
43626;SDS011;29217;52.586;13.442;2022-08-03T01:00:35;8.65;;;3.13;;
43626;SDS011;29217;52.586;13.442;2022-08-03T01:03:03;6.15;;;3.25;;
43626;SDS011;29217;52.586;13.442;2022-08-03T01:05:29;6.22;;;2.95;;
43626;SDS011;29217;52.586;13.442;2022-08-03T01:16:26;5.05;;;3.08;;
43626;SDS011;29217;52.586;13.442;2022-08-03T01:21:56;4.60;;;3.10;;
43626;SDS011;29217;52.586;13.442;2022-08-03T01:27:25;4.03;;;3.05;;
43626;SDS011;29217;52.586;13.442;2022-08-03T01:30:11;10.70;;;3.08;;
43626;SDS011;29217;52.586;13.442;2022-08-03T01:38:29;9.40;;;3.30;;
43626;SDS011;29217;52.586;13.442;2022-08-03T01:41:00;9.35;;;3.15;;
43626;SDS011;29217;52.586;13.442;2022-08-03T01:43:29;10.50;;;3.42;;
43626;SDS011;29217;52.586;13.442;2022-08-03T01:45:55;7.47;;;2.95;;
43626;SDS011;29217;52.586;13.442;2022-08-03T01:48:22;15.73;;;3.33;;
43626;SDS011;29217;52.586;13.442;2022-08-03T01:50:48;6.75;;;3.20;;
43626;SDS011;29217;52.586;13.442;2022-08-03T01:53:15;10.15;;;3.40;;
43626;SDS011;29217;52.586;13.442;2022-08-03T01:55:43;8.95;;;3.20;;
43626;SDS011;29217;52.586;13.442;2022-08-03T01:58:11;11.90;;;3.10;;
43626;SDS011;29217;52.586;13.442;2022-08-03T02:00:39;11.82;;;3.97;;
43626;SDS011;29217;52.586;13.442;2022-08-03T02:03:05;8.48;;;3.33;;
43626;SDS011;29217;52.586;13.442;2022-08-03T02:05:32;7.53;;;3.08;;
43626;SDS011;29217;52.586;13.442;2022-08-03T02:07:59;11.48;;;3.20;;
43626;SDS011;29217;52.586;13.442;2022-08-03T02:10:27;8.15;;;3.15;;
43626;SDS011;29217;52.586;13.442;2022-08-03T02:12:53;11.05;;;2.78;;
43626;SDS011;29217;52.586;13.442;2022-08-03T02:15:21;11.65;;;3.30;;
43626;SDS011;29217;52.586;13.442;2022-08-03T02:17:47;10.40;;;3.28;;
43626;SDS011;29217;52.586;13.442;2022-08-03T02:20:14;8.35;;;2.88;;
43626;SDS011;29217;52.586;13.442;2022-08-03T02:22:41;7.10;;;2.97;;
43626;SDS011;29217;52.586;13.442;2022-08-03T02:25:08;6.85;;;3.30;;
43626;SDS011;29217;52.586;13.442;2022-08-03T02:27:37;9.32;;;2.90;;
43626;SDS011;29217;52.586;13.442;2022-08-03T02:30:07;10.60;;;3.10;;
43626;SDS011;29217;52.586;13.442;2022-08-03T02:32:35;6.88;;;3.10;;
43626;SDS011;29217;52.586;13.442;2022-08-03T02:35:08;12.13;;;2.90;;
43626;SDS011;29217;52.586;13.442;2022-08-03T02:37:40;10.27;;;3.15;;
43626;SDS011;29217;52.586;13.442;2022-08-03T02:40:08;6.75;;;2.78;;
43626;SDS011;29217;52.586;13.442;2022-08-03T02:42:35;15.73;;;3.15;;
43626;SDS011;29217;52.586;13.442;2022-08-03T02:45:04;11.18;;;3.20;;
43626;SDS011;29217;52.586;13.442;2022-08-03T02:47:34;4.22;;;2.72;;
43626;SDS011;29217;52.586;13.442;2022-08-03T02:50:02;6.85;;;3.13;;
43626;SDS011;29217;52.586;13.442;2022-08-03T02:52:29;10.00;;;3.00;;
43626;SDS011;29217;52.586;13.442;2022-08-03T02:54:58;7.88;;;3.20;;
43626;SDS011;29217;52.586;13.442;2022-08-03T02:57:27;5.78;;;2.70;;
43626;SDS011;29217;52.586;13.442;2022-08-03T02:59:54;14.80;;;3.42;;
43626;SDS011;29217;52.586;13.442;2022-08-03T03:02:21;15.05;;;3.40;;
43626;SDS011;29217;52.586;13.442;2022-08-03T03:04:49;7.43;;;3.30;;
43626;SDS011;29217;52.586;13.442;2022-08-03T03:07:18;14.50;;;3.63;;
43626;SDS011;29217;52.586;13.442;2022-08-03T03:09:44;14.02;;;3.55;;
43626;SDS011;29217;52.586;13.442;2022-08-03T03:12:11;17.13;;;3.83;;
43626;SDS011;29217;52.586;13.442;2022-08-03T03:14:37;22.20;;;3.28;;
43626;SDS011;29217;52.586;13.442;2022-08-03T03:17:05;16.05;;;3.45;;
43626;SDS011;29217;52.586;13.442;2022-08-03T03:19:32;14.20;;;4.32;;
43626;SDS011;29217;52.586;13.442;2022-08-03T03:22:01;15.38;;;3.53;;
43626;SDS011;29217;52.586;13.442;2022-08-03T03:24:28;36.85;;;4.82;;
43626;SDS011;29217;52.586;13.442;2022-08-03T03:26:54;36.83;;;5.75;;
43626;SDS011;29217;52.586;13.442;2022-08-03T03:29:21;14.13;;;4.07;;
43626;SDS011;29217;52.586;13.442;2022-08-03T03:31:47;12.75;;;3.35;;
43626;SDS011;29217;52.586;13.442;2022-08-03T03:34:13;8.30;;;3.60;;
43626;SDS011;29217;52.586;13.442;2022-08-03T03:36:39;12.77;;;4.82;;
43626;SDS011;29217;52.586;13.442;2022-08-03T03:39:05;11.23;;;3.35;;
43626;SDS011;29217;52.586;13.442;2022-08-03T03:41:31;14.52;;;3.35;;
43626;SDS011;29217;52.586;13.442;2022-08-03T03:43:56;53.50;;;5.15;;
43626;SDS011;29217;52.586;13.442;2022-08-03T03:46:22;37.25;;;4.50;;
43626;SDS011;29217;52.586;13.442;2022-08-03T03:48:48;44.35;;;6.57;;
43626;SDS011;29217;52.586;13.442;2022-08-03T03:51:14;36.97;;;5.07;;
43626;SDS011;29217;52.586;13.442;2022-08-03T03:53:52;26.98;;;4.22;;
43626;SDS011;29217;52.586;13.442;2022-08-03T03:56:22;18.08;;;3.90;;
43626;SDS011;29217;52.586;13.442;2022-08-03T03:58:48;15.60;;;3.83;;
43626;SDS011;29217;52.586;13.442;2022-08-03T04:01:14;25.30;;;4.00;;
43626;SDS011;29217;52.586;13.442;2022-08-03T04:03:40;27.85;;;5.65;;
43626;SDS011;29217;52.586;13.442;2022-08-03T04:06:06;21.02;;;4.72;;
43626;SDS011;29217;52.586;13.442;2022-08-03T04:08:50;24.05;;;5.00;;
43626;SDS011;29217;52.586;13.442;2022-08-03T04:14:22;22.40;;;5.07;;
43626;SDS011;29217;52.586;13.442;2022-08-03T04:16:54;15.70;;;4.47;;
43626;SDS011;29217;52.586;13.442;2022-08-03T04:19:39;23.48;;;4.47;;
43626;SDS011;29217;52.586;13.442;2022-08-03T04:22:10;20.60;;;4.50;;
43626;SDS011;29217;52.586;13.442;2022-08-03T04:24:42;22.10;;;4.10;;
43626;SDS011;29217;52.586;13.442;2022-08-03T04:27:11;18.65;;;5.15;;
43626;SDS011;29217;52.586;13.442;2022-08-03T04:29:41;17.60;;;4.07;;
43626;SDS011;29217;52.586;13.442;2022-08-03T04:32:11;23.20;;;4.38;;
43626;SDS011;29217;52.586;13.442;2022-08-03T04:34:37;25.30;;;4.47;;
43626;SDS011;29217;52.586;13.442;2022-08-03T04:37:04;16.83;;;3.72;;
43626;SDS011;29217;52.586;13.442;2022-08-03T04:39:36;19.83;;;4.35;;
43626;SDS011;29217;52.586;13.442;2022-08-03T04:42:04;22.88;;;4.90;;
43626;SDS011;29217;52.586;13.442;2022-08-03T04:44:35;12.75;;;3.72;;
43626;SDS011;29217;52.586;13.442;2022-08-03T04:47:04;15.35;;;4.03;;
43626;SDS011;29217;52.586;13.442;2022-08-03T04:49:29;23.70;;;4.68;;
43626;SDS011;29217;52.586;13.442;2022-08-03T04:51:56;15.70;;;4.07;;
43626;SDS011;29217;52.586;13.442;2022-08-03T04:54:22;17.17;;;3.92;;
43626;SDS011;29217;52.586;13.442;2022-08-03T04:56:47;18.42;;;4.13;;
43626;SDS011;29217;52.586;13.442;2022-08-03T04:59:13;20.48;;;4.13;;
43626;SDS011;29217;52.586;13.442;2022-08-03T05:01:39;17.08;;;3.90;;
43626;SDS011;29217;52.586;13.442;2022-08-03T05:04:06;15.48;;;4.57;;
43626;SDS011;29217;52.586;13.442;2022-08-03T05:06:31;19.58;;;4.35;;
43626;SDS011;29217;52.586;13.442;2022-08-03T05:08:57;27.83;;;5.20;;
43626;SDS011;29217;52.586;13.442;2022-08-03T05:11:23;24.88;;;4.70;;
43626;SDS011;29217;52.586;13.442;2022-08-03T05:13:48;14.68;;;5.03;;
43626;SDS011;29217;52.586;13.442;2022-08-03T05:16:14;9.63;;;4.00;;
43626;SDS011;29217;52.586;13.442;2022-08-03T05:18:42;14.52;;;4.30;;
43626;SDS011;29217;52.586;13.442;2022-08-03T05:21:10;16.45;;;4.68;;
43626;SDS011;29217;52.586;13.442;2022-08-03T05:23:38;9.27;;;4.05;;
43626;SDS011;29217;52.586;13.442;2022-08-03T05:26:04;11.23;;;3.97;;
43626;SDS011;29217;52.586;13.442;2022-08-03T05:28:29;22.17;;;3.90;;
43626;SDS011;29217;52.586;13.442;2022-08-03T05:30:55;13.45;;;3.85;;
43626;SDS011;29217;52.586;13.442;2022-08-03T05:33:21;8.40;;;3.70;;
43626;SDS011;29217;52.586;13.442;2022-08-03T05:35:47;10.25;;;3.15;;
43626;SDS011;29217;52.586;13.442;2022-08-03T05:38:12;9.60;;;3.55;;
43626;SDS011;29217;52.586;13.442;2022-08-03T05:40:38;8.32;;;3.55;;
43626;SDS011;29217;52.586;13.442;2022-08-03T05:43:03;8.45;;;2.97;;
43626;SDS011;29217;52.586;13.442;2022-08-03T05:45:29;4.60;;;3.28;;
43626;SDS011;29217;52.586;13.442;2022-08-03T05:47:54;6.32;;;3.20;;
43626;SDS011;29217;52.586;13.442;2022-08-03T05:50:20;10.32;;;3.50;;
43626;SDS011;29217;52.586;13.442;2022-08-03T05:52:45;9.52;;;2.92;;
43626;SDS011;29217;52.586;13.442;2022-08-03T05:55:11;6.22;;;3.25;;
43626;SDS011;29217;52.586;13.442;2022-08-03T05:57:38;9.60;;;3.63;;
43626;SDS011;29217;52.586;13.442;2022-08-03T06:00:05;10.18;;;3.40;;
43626;SDS011;29217;52.586;13.442;2022-08-03T06:02:32;6.95;;;2.70;;
43626;SDS011;29217;52.586;13.442;2022-08-03T06:04:58;5.55;;;3.05;;
43626;SDS011;29217;52.586;13.442;2022-08-03T06:07:24;6.25;;;2.60;;
43626;SDS011;29217;52.586;13.442;2022-08-03T06:09:49;7.20;;;3.05;;
43626;SDS011;29217;52.586;13.442;2022-08-03T06:12:15;5.47;;;3.05;;
43626;SDS011;29217;52.586;13.442;2022-08-03T06:14:40;11.50;;;3.35;;
43626;SDS011;29217;52.586;13.442;2022-08-03T06:17:06;8.70;;;2.70;;
43626;SDS011;29217;52.586;13.442;2022-08-03T06:19:32;10.00;;;2.80;;
43626;SDS011;29217;52.586;13.442;2022-08-03T06:21:57;7.68;;;2.50;;
43626;SDS011;29217;52.586;13.442;2022-08-03T06:24:23;6.68;;;2.17;;
43626;SDS011;29217;52.586;13.442;2022-08-03T06:26:48;4.20;;;2.35;;
43626;SDS011;29217;52.586;13.442;2022-08-03T06:29:14;10.75;;;2.80;;
43626;SDS011;29217;52.586;13.442;2022-08-03T06:31:39;8.52;;;2.20;;
43626;SDS011;29217;52.586;13.442;2022-08-03T06:34:05;7.75;;;2.42;;
43626;SDS011;29217;52.586;13.442;2022-08-03T06:36:31;7.18;;;2.45;;
43626;SDS011;29217;52.586;13.442;2022-08-03T06:38:57;7.20;;;2.58;;
43626;SDS011;29217;52.586;13.442;2022-08-03T06:41:23;8.90;;;2.78;;
43626;SDS011;29217;52.586;13.442;2022-08-03T06:43:49;19.13;;;2.92;;
43626;SDS011;29217;52.586;13.442;2022-08-03T06:46:15;7.72;;;2.10;;
43626;SDS011;29217;52.586;13.442;2022-08-03T06:48:41;7.90;;;2.10;;
43626;SDS011;29217;52.586;13.442;2022-08-03T06:51:06;11.70;;;2.30;;
43626;SDS011;29217;52.586;13.442;2022-08-03T06:53:32;12.50;;;2.45;;
43626;SDS011;29217;52.586;13.442;2022-08-03T06:55:58;8.68;;;2.28;;
43626;SDS011;29217;52.586;13.442;2022-08-03T06:58:23;51.05;;;4.28;;
43626;SDS011;29217;52.586;13.442;2022-08-03T07:00:49;10.65;;;2.80;;
43626;SDS011;29217;52.586;13.442;2022-08-03T07:03:14;5.70;;;2.00;;
43626;SDS011;29217;52.586;13.442;2022-08-03T07:05:41;6.38;;;2.20;;
43626;SDS011;29217;52.586;13.442;2022-08-03T07:08:07;6.70;;;1.98;;
43626;SDS011;29217;52.586;13.442;2022-08-03T07:10:33;8.88;;;2.20;;
43626;SDS011;29217;52.586;13.442;2022-08-03T07:12:59;7.95;;;2.17;;
43626;SDS011;29217;52.586;13.442;2022-08-03T07:15:24;7.32;;;2.00;;
43626;SDS011;29217;52.586;13.442;2022-08-03T07:17:50;8.18;;;2.58;;
43626;SDS011;29217;52.586;13.442;2022-08-03T07:20:16;7.45;;;2.10;;
43626;SDS011;29217;52.586;13.442;2022-08-03T07:22:42;3.95;;;1.90;;
43626;SDS011;29217;52.586;13.442;2022-08-03T07:25:08;4.70;;;2.03;;
43626;SDS011;29217;52.586;13.442;2022-08-03T07:27:34;6.20;;;2.00;;
43626;SDS011;29217;52.586;13.442;2022-08-03T07:30:00;9.60;;;2.03;;
43626;SDS011;29217;52.586;13.442;2022-08-03T07:32:26;4.97;;;2.00;;
43626;SDS011;29217;52.586;13.442;2022-08-03T07:34:55;4.75;;;1.90;;
43626;SDS011;29217;52.586;13.442;2022-08-03T07:37:20;13.27;;;2.10;;
43626;SDS011;29217;52.586;13.442;2022-08-03T07:39:46;3.92;;;1.80;;
43626;SDS011;29217;52.586;13.442;2022-08-03T07:42:11;13.75;;;1.83;;
43626;SDS011;29217;52.586;13.442;2022-08-03T07:44:37;11.23;;;2.15;;
43626;SDS011;29217;52.586;13.442;2022-08-03T07:47:03;4.65;;;1.67;;
43626;SDS011;29217;52.586;13.442;2022-08-03T07:49:29;4.18;;;1.70;;
43626;SDS011;29217;52.586;13.442;2022-08-03T07:51:55;4.30;;;1.70;;
43626;SDS011;29217;52.586;13.442;2022-08-03T07:54:39;5.30;;;1.63;;
43626;SDS011;29217;52.586;13.442;2022-08-03T07:57:04;10.30;;;2.00;;
43626;SDS011;29217;52.586;13.442;2022-08-03T07:59:30;3.33;;;1.65;;
43626;SDS011;29217;52.586;13.442;2022-08-03T08:01:55;6.82;;;1.73;;
43626;SDS011;29217;52.586;13.442;2022-08-03T08:04:21;10.73;;;1.70;;
43626;SDS011;29217;52.586;13.442;2022-08-03T08:06:47;5.68;;;1.70;;
43626;SDS011;29217;52.586;13.442;2022-08-03T08:09:12;4.40;;;1.77;;
43626;SDS011;29217;52.586;13.442;2022-08-03T08:11:38;4.05;;;1.90;;
43626;SDS011;29217;52.586;13.442;2022-08-03T08:14:04;4.47;;;2.30;;
43626;SDS011;29217;52.586;13.442;2022-08-03T08:16:31;3.10;;;1.77;;
43626;SDS011;29217;52.586;13.442;2022-08-03T08:18:57;5.72;;;1.52;;
43626;SDS011;29217;52.586;13.442;2022-08-03T08:21:22;6.68;;;1.90;;
43626;SDS011;29217;52.586;13.442;2022-08-03T08:23:48;4.05;;;1.50;;
43626;SDS011;29217;52.586;13.442;2022-08-03T08:26:13;7.00;;;1.70;;
43626;SDS011;29217;52.586;13.442;2022-08-03T08:28:39;7.45;;;1.58;;
43626;SDS011;29217;52.586;13.442;2022-08-03T08:31:05;4.70;;;1.80;;
43626;SDS011;29217;52.586;13.442;2022-08-03T08:33:30;4.40;;;1.60;;
43626;SDS011;29217;52.586;13.442;2022-08-03T08:35:58;5.43;;;1.80;;
43626;SDS011;29217;52.586;13.442;2022-08-03T08:38:24;2.90;;;1.58;;
43626;SDS011;29217;52.586;13.442;2022-08-03T08:40:50;3.22;;;1.50;;
43626;SDS011;29217;52.586;13.442;2022-08-03T08:43:15;16.10;;;1.88;;
43626;SDS011;29217;52.586;13.442;2022-08-03T08:45:41;3.58;;;1.70;;
43626;SDS011;29217;52.586;13.442;2022-08-03T08:48:07;7.10;;;1.70;;
43626;SDS011;29217;52.586;13.442;2022-08-03T08:50:34;8.82;;;1.90;;
43626;SDS011;29217;52.586;13.442;2022-08-03T08:53:02;5.70;;;1.48;;
43626;SDS011;29217;52.586;13.442;2022-08-03T08:55:31;12.88;;;1.70;;
43626;SDS011;29217;52.586;13.442;2022-08-03T08:58:00;9.00;;;1.70;;
43626;SDS011;29217;52.586;13.442;2022-08-03T09:00:29;2.75;;;1.50;;
43626;SDS011;29217;52.586;13.442;2022-08-03T09:02:55;4.97;;;1.88;;
43626;SDS011;29217;52.586;13.442;2022-08-03T09:05:20;4.45;;;1.80;;
43626;SDS011;29217;52.586;13.442;2022-08-03T09:07:46;7.10;;;2.17;;
43626;SDS011;29217;52.586;13.442;2022-08-03T09:10:13;4.85;;;1.80;;
43626;SDS011;29217;52.586;13.442;2022-08-03T09:12:43;4.07;;;1.92;;
43626;SDS011;29217;52.586;13.442;2022-08-03T09:17:42;3.63;;;1.60;;
43626;SDS011;29217;52.586;13.442;2022-08-03T09:20:08;6.28;;;1.85;;
43626;SDS011;29217;52.586;13.442;2022-08-03T09:22:34;4.47;;;1.67;;
43626;SDS011;29217;52.586;13.442;2022-08-03T09:25:04;4.65;;;1.73;;
43626;SDS011;29217;52.586;13.442;2022-08-03T09:27:41;7.63;;;2.00;;
43626;SDS011;29217;52.586;13.442;2022-08-03T09:30:15;4.60;;;1.70;;
43626;SDS011;29217;52.586;13.442;2022-08-03T09:32:42;7.88;;;1.65;;
43626;SDS011;29217;52.586;13.442;2022-08-03T09:35:11;4.13;;;1.60;;
43626;SDS011;29217;52.586;13.442;2022-08-03T09:37:37;46.90;;;3.35;;
43626;SDS011;29217;52.586;13.442;2022-08-03T09:40:04;15.30;;;1.92;;
43626;SDS011;29217;52.586;13.442;2022-08-03T09:42:30;7.20;;;1.70;;
43626;SDS011;29217;52.586;13.442;2022-08-03T09:44:59;2.17;;;1.67;;
43626;SDS011;29217;52.586;13.442;2022-08-03T09:47:28;3.13;;;1.52;;
43626;SDS011;29217;52.586;13.442;2022-08-03T09:49:58;2.70;;;1.63;;
43626;SDS011;29217;52.586;13.442;2022-08-03T09:52:31;6.88;;;1.58;;
43626;SDS011;29217;52.586;13.442;2022-08-03T09:54:57;2.85;;;1.45;;
43626;SDS011;29217;52.586;13.442;2022-08-03T09:57:23;12.70;;;1.63;;
43626;SDS011;29217;52.586;13.442;2022-08-03T09:59:51;7.60;;;1.77;;
43626;SDS011;29217;52.586;13.442;2022-08-03T10:02:21;7.40;;;1.60;;
43626;SDS011;29217;52.586;13.442;2022-08-03T10:04:48;4.03;;;2.10;;
43626;SDS011;29217;52.586;13.442;2022-08-03T10:07:16;5.25;;;1.52;;
43626;SDS011;29217;52.586;13.442;2022-08-03T10:09:58;4.03;;;1.67;;
43626;SDS011;29217;52.586;13.442;2022-08-03T10:12:26;6.45;;;1.48;;
43626;SDS011;29217;52.586;13.442;2022-08-03T10:14:52;3.38;;;1.30;;
43626;SDS011;29217;52.586;13.442;2022-08-03T10:17:19;2.88;;;1.45;;
43626;SDS011;29217;52.586;13.442;2022-08-03T10:19:45;6.53;;;1.85;;
43626;SDS011;29217;52.586;13.442;2022-08-03T10:22:13;3.20;;;1.50;;
43626;SDS011;29217;52.586;13.442;2022-08-03T10:24:48;2.55;;;1.50;;
43626;SDS011;29217;52.586;13.442;2022-08-03T10:27:18;8.38;;;1.55;;
43626;SDS011;29217;52.586;13.442;2022-08-03T10:29:50;6.32;;;1.85;;
43626;SDS011;29217;52.586;13.442;2022-08-03T10:32:20;3.55;;;1.77;;
43626;SDS011;29217;52.586;13.442;2022-08-03T10:34:52;4.15;;;1.40;;
43626;SDS011;29217;52.586;13.442;2022-08-03T10:37:23;2.22;;;1.63;;
43626;SDS011;29217;52.586;13.442;2022-08-03T10:39:51;3.08;;;1.42;;
43626;SDS011;29217;52.586;13.442;2022-08-03T10:42:19;2.85;;;1.50;;
43626;SDS011;29217;52.586;13.442;2022-08-03T10:44:46;16.13;;;1.73;;
43626;SDS011;29217;52.586;13.442;2022-08-03T10:47:17;6.93;;;1.52;;
43626;SDS011;29217;52.586;13.442;2022-08-03T10:49:43;4.22;;;1.80;;
43626;SDS011;29217;52.586;13.442;2022-08-03T10:52:11;2.33;;;1.27;;
43626;SDS011;29217;52.586;13.442;2022-08-03T10:54:40;8.52;;;1.65;;
43626;SDS011;29217;52.586;13.442;2022-08-03T11:00:31;2.88;;;1.27;;
43626;SDS011;29217;52.586;13.442;2022-08-03T11:03:12;5.63;;;1.77;;
43626;SDS011;29217;52.586;13.442;2022-08-03T11:05:42;1.30;;;1.20;;
43626;SDS011;29217;52.586;13.442;2022-08-03T11:10:44;3.67;;;1.38;;
43626;SDS011;29217;52.586;13.442;2022-08-03T11:13:11;2.47;;;1.35;;
43626;SDS011;29217;52.586;13.442;2022-08-03T11:15:41;4.10;;;1.40;;
43626;SDS011;29217;52.586;13.442;2022-08-03T11:18:10;11.38;;;1.40;;
43626;SDS011;29217;52.586;13.442;2022-08-03T11:20:53;5.95;;;1.40;;
43626;SDS011;29217;52.586;13.442;2022-08-03T11:23:38;2.50;;;1.30;;
43626;SDS011;29217;52.586;13.442;2022-08-03T11:26:16;1.35;;;1.00;;
43626;SDS011;29217;52.586;13.442;2022-08-03T11:28:43;2.13;;;1.30;;
43626;SDS011;29217;52.586;13.442;2022-08-03T11:34:10;6.18;;;1.20;;
43626;SDS011;29217;52.586;13.442;2022-08-03T11:39:41;2.22;;;1.30;;
43626;SDS011;29217;52.586;13.442;2022-08-03T11:44:50;2.42;;;1.17;;
43626;SDS011;29217;52.586;13.442;2022-08-03T11:47:18;2.58;;;1.10;;
43626;SDS011;29217;52.586;13.442;2022-08-03T11:49:48;1.48;;;1.00;;
43626;SDS011;29217;52.586;13.442;2022-08-03T11:52:15;1.25;;;0.93;;
43626;SDS011;29217;52.586;13.442;2022-08-03T11:54:41;3.28;;;0.82;;
43626;SDS011;29217;52.586;13.442;2022-08-03T11:57:07;2.60;;;0.93;;
43626;SDS011;29217;52.586;13.442;2022-08-03T11:59:33;3.40;;;0.98;;
43626;SDS011;29217;52.586;13.442;2022-08-03T12:02:09;3.92;;;1.00;;
43626;SDS011;29217;52.586;13.442;2022-08-03T12:04:51;2.28;;;1.00;;
43626;SDS011;29217;52.586;13.442;2022-08-03T12:07:18;8.57;;;1.20;;
43626;SDS011;29217;52.586;13.442;2022-08-03T12:12:32;5.03;;;1.10;;
43626;SDS011;29217;52.586;13.442;2022-08-03T12:14:59;4.22;;;1.00;;
43626;SDS011;29217;52.586;13.442;2022-08-03T12:17:38;8.75;;;1.27;;
43626;SDS011;29217;52.586;13.442;2022-08-03T12:20:06;5.03;;;1.00;;
43626;SDS011;29217;52.586;13.442;2022-08-03T12:22:34;1.35;;;0.90;;
43626;SDS011;29217;52.586;13.442;2022-08-03T12:25:01;3.63;;;1.00;;
43626;SDS011;29217;52.586;13.442;2022-08-03T12:27:27;8.05;;;1.25;;
43626;SDS011;29217;52.586;13.442;2022-08-03T12:29:53;2.33;;;1.17;;
43626;SDS011;29217;52.586;13.442;2022-08-03T12:32:20;3.70;;;1.00;;
43626;SDS011;29217;52.586;13.442;2022-08-03T12:34:46;15.75;;;1.50;;
43626;SDS011;29217;52.586;13.442;2022-08-03T12:37:13;2.25;;;1.05;;
43626;SDS011;29217;52.586;13.442;2022-08-03T12:39:42;2.13;;;1.15;;
43626;SDS011;29217;52.586;13.442;2022-08-03T12:42:14;12.52;;;1.23;;
43626;SDS011;29217;52.586;13.442;2022-08-03T12:44:40;2.65;;;1.20;;
43626;SDS011;29217;52.586;13.442;2022-08-03T12:47:05;16.50;;;1.60;;
43626;SDS011;29217;52.586;13.442;2022-08-03T12:49:45;2.50;;;1.20;;
43626;SDS011;29217;52.586;13.442;2022-08-03T12:52:11;6.60;;;1.42;;
43626;SDS011;29217;52.586;13.442;2022-08-03T12:54:37;2.03;;;1.35;;
43626;SDS011;29217;52.586;13.442;2022-08-03T12:57:04;3.20;;;1.27;;
43626;SDS011;29217;52.586;13.442;2022-08-03T12:59:36;12.23;;;1.50;;
43626;SDS011;29217;52.586;13.442;2022-08-03T13:02:13;1.95;;;1.00;;
43626;SDS011;29217;52.586;13.442;2022-08-03T13:04:52;6.55;;;1.15;;
43626;SDS011;29217;52.586;13.442;2022-08-03T13:07:19;5.00;;;1.33;;
43626;SDS011;29217;52.586;13.442;2022-08-03T13:12:26;2.15;;;1.27;;
43626;SDS011;29217;52.586;13.442;2022-08-03T13:14:56;8.23;;;1.52;;
43626;SDS011;29217;52.586;13.442;2022-08-03T13:17:23;4.65;;;1.38;;
43626;SDS011;29217;52.586;13.442;2022-08-03T13:19:49;9.27;;;1.33;;
43626;SDS011;29217;52.586;13.442;2022-08-03T13:22:19;5.28;;;1.50;;
43626;SDS011;29217;52.586;13.442;2022-08-03T13:24:50;5.55;;;1.25;;
43626;SDS011;29217;52.586;13.442;2022-08-03T13:27:17;1.92;;;1.25;;
43626;SDS011;29217;52.586;13.442;2022-08-03T13:29:42;5.57;;;1.10;;
43626;SDS011;29217;52.586;13.442;2022-08-03T13:32:08;2.17;;;1.15;;
43626;SDS011;29217;52.586;13.442;2022-08-03T13:34:34;1.52;;;1.00;;
43626;SDS011;29217;52.586;13.442;2022-08-03T13:37:00;1.85;;;1.25;;
43626;SDS011;29217;52.586;13.442;2022-08-03T13:39:26;1.77;;;1.30;;
43626;SDS011;29217;52.586;13.442;2022-08-03T13:41:52;2.47;;;1.10;;
43626;SDS011;29217;52.586;13.442;2022-08-03T13:44:17;3.45;;;1.10;;
43626;SDS011;29217;52.586;13.442;2022-08-03T13:46:44;3.00;;;1.17;;
43626;SDS011;29217;52.586;13.442;2022-08-03T13:49:10;5.07;;;1.20;;
43626;SDS011;29217;52.586;13.442;2022-08-03T13:51:35;1.13;;;0.90;;
43626;SDS011;29217;52.586;13.442;2022-08-03T13:54:01;6.32;;;1.30;;
43626;SDS011;29217;52.586;13.442;2022-08-03T13:56:27;2.67;;;1.40;;
43626;SDS011;29217;52.586;13.442;2022-08-03T13:58:55;4.45;;;1.10;;
43626;SDS011;29217;52.586;13.442;2022-08-03T14:01:21;4.00;;;1.30;;
43626;SDS011;29217;52.586;13.442;2022-08-03T14:03:47;2.65;;;1.23;;
43626;SDS011;29217;52.586;13.442;2022-08-03T14:06:16;4.30;;;1.30;;
43626;SDS011;29217;52.586;13.442;2022-08-03T14:08:42;6.07;;;0.98;;
43626;SDS011;29217;52.586;13.442;2022-08-03T14:11:09;2.78;;;1.30;;
43626;SDS011;29217;52.586;13.442;2022-08-03T14:13:35;2.63;;;1.10;;
43626;SDS011;29217;52.586;13.442;2022-08-03T14:16:01;3.65;;;1.20;;
43626;SDS011;29217;52.586;13.442;2022-08-03T14:18:26;2.03;;;1.30;;
43626;SDS011;29217;52.586;13.442;2022-08-03T14:20:52;11.20;;;1.40;;
43626;SDS011;29217;52.586;13.442;2022-08-03T14:23:17;3.90;;;1.20;;
43626;SDS011;29217;52.586;13.442;2022-08-03T14:25:43;6.47;;;1.10;;
43626;SDS011;29217;52.586;13.442;2022-08-03T14:28:08;3.92;;;1.40;;
43626;SDS011;29217;52.586;13.442;2022-08-03T14:30:34;6.18;;;1.20;;
43626;SDS011;29217;52.586;13.442;2022-08-03T14:33:00;4.15;;;1.35;;
43626;SDS011;29217;52.586;13.442;2022-08-03T14:35:25;7.88;;;1.20;;
43626;SDS011;29217;52.586;13.442;2022-08-03T14:37:51;1.67;;;1.30;;
43626;SDS011;29217;52.586;13.442;2022-08-03T14:40:17;2.65;;;1.30;;
43626;SDS011;29217;52.586;13.442;2022-08-03T14:42:43;5.53;;;1.38;;
43626;SDS011;29217;52.586;13.442;2022-08-03T14:45:09;5.10;;;1.30;;
43626;SDS011;29217;52.586;13.442;2022-08-03T14:47:35;7.18;;;1.45;;
43626;SDS011;29217;52.586;13.442;2022-08-03T14:50:00;5.82;;;1.40;;
43626;SDS011;29217;52.586;13.442;2022-08-03T14:52:28;9.32;;;1.30;;
43626;SDS011;29217;52.586;13.442;2022-08-03T14:54:54;3.90;;;1.30;;
43626;SDS011;29217;52.586;13.442;2022-08-03T14:57:20;5.80;;;1.40;;
43626;SDS011;29217;52.586;13.442;2022-08-03T14:59:46;1.70;;;1.38;;
43626;SDS011;29217;52.586;13.442;2022-08-03T15:02:11;4.43;;;1.33;;
43626;SDS011;29217;52.586;13.442;2022-08-03T15:04:37;3.03;;;1.30;;
43626;SDS011;29217;52.586;13.442;2022-08-03T15:07:02;4.55;;;1.60;;
43626;SDS011;29217;52.586;13.442;2022-08-03T15:09:29;3.88;;;1.30;;
43626;SDS011;29217;52.586;13.442;2022-08-03T15:11:55;4.50;;;1.33;;
43626;SDS011;29217;52.586;13.442;2022-08-03T15:14:20;3.65;;;1.50;;
43626;SDS011;29217;52.586;13.442;2022-08-03T15:16:46;1.83;;;1.35;;
43626;SDS011;29217;52.586;13.442;2022-08-03T15:19:11;7.15;;;1.55;;